createdAt,value
2022-12-11T00:00:41.111Z,2.57
2022-12-11T00:04:04.109Z,2.57
2022-12-11T00:07:07.105Z,2.56
2022-12-11T00:10:10.111Z,2.55
2022-12-11T00:13:13.130Z,2.54
2022-12-11T00:16:16.484Z,2.53
2022-12-11T00:19:19.618Z,2.52
2022-12-11T00:22:22.703Z,2.51
2022-12-11T00:25:25.683Z,2.48
2022-12-11T00:28:28.701Z,2.46
2022-12-11T00:31:31.944Z,2.45
2022-12-11T00:34:34.999Z,2.45
2022-12-11T00:37:38.693Z,2.44
2022-12-11T00:40:41.966Z,2.44
2022-12-11T00:43:45.185Z,2.44
2022-12-11T00:46:48.339Z,2.45
2022-12-11T00:49:51.423Z,2.45
2022-12-11T00:52:54.506Z,2.45
2022-12-11T00:55:57.566Z,2.45
2022-12-11T00:59:01.028Z,2.43
2022-12-11T01:02:04.282Z,2.43
2022-12-11T01:05:07.886Z,2.42
2022-12-11T01:08:11.141Z,2.41
2022-12-11T01:11:16.332Z,2.39
2022-12-11T01:14:19.745Z,2.39
2022-12-11T01:17:22.815Z,2.39
2022-12-11T01:20:28.296Z,2.38
2022-12-11T01:23:31.274Z,2.37
2022-12-11T01:26:34.527Z,2.35
2022-12-11T01:29:37.691Z,2.34
2022-12-11T01:32:40.649Z,2.32
2022-12-11T01:35:43.642Z,2.31
2022-12-11T01:38:48.301Z,2.29
2022-12-11T01:41:51.325Z,2.28
2022-12-11T01:45:15.816Z,2.27
2022-12-11T01:48:25.292Z,2.28
2022-12-11T01:51:31.425Z,2.29
2022-12-11T01:54:34.859Z,2.30
2022-12-11T01:57:41.354Z,2.31
2022-12-11T02:00:44.465Z,2.32
2022-12-11T02:03:47.639Z,2.33
2022-12-11T02:06:56.196Z,2.31
2022-12-11T02:09:59.188Z,2.31
2022-12-11T02:13:13.038Z,2.31
2022-12-11T02:16:25.796Z,2.32
2022-12-11T02:19:55.911Z,2.33
2022-12-11T02:23:16.940Z,2.33
2022-12-11T02:26:49.912Z,2.34
2022-12-11T02:30:07.183Z,2.34
2022-12-11T02:33:13.719Z,2.32
2022-12-11T02:36:19.028Z,2.32
2022-12-11T02:39:24.554Z,2.31
2022-12-11T02:42:31.416Z,2.32
2022-12-11T02:45:35.516Z,2.30
2022-12-11T02:48:41.640Z,2.28
2022-12-11T02:51:44.711Z,2.27
2022-12-11T02:54:49.715Z,2.27
2022-12-11T02:58:25.232Z,2.27
2022-12-11T03:01:28.566Z,2.25
2022-12-11T03:04:32.330Z,2.24
2022-12-11T03:07:38.677Z,2.23
2022-12-11T03:10:41.689Z,2.23
2022-12-11T03:13:44.731Z,2.22
2022-12-11T03:17:00.095Z,2.22
2022-12-11T03:20:15.324Z,2.21
2022-12-11T03:23:32.308Z,2.20
2022-12-11T03:26:48.773Z,2.21
2022-12-11T03:30:14.544Z,2.22
2022-12-11T03:33:26.541Z,2.21
2022-12-11T03:36:36.271Z,2.21
2022-12-11T03:39:44.337Z,2.19
2022-12-11T03:42:50.601Z,2.17
2022-12-11T03:45:54.824Z,2.14
2022-12-11T03:49:03.438Z,2.13
2022-12-11T03:52:09.124Z,2.12
2022-12-11T03:55:15.228Z,2.12
2022-12-11T03:58:18.246Z,2.12
2022-12-11T04:01:21.518Z,2.11
2022-12-11T04:04:24.764Z,2.11
2022-12-11T04:07:28.710Z,2.11
2022-12-11T04:10:31.792Z,2.11
2022-12-11T04:13:34.943Z,2.12
2022-12-11T04:16:38.133Z,2.11
2022-12-11T04:19:59.571Z,2.11
2022-12-11T04:23:25.195Z,2.09
2022-12-11T04:26:28.235Z,2.07
2022-12-11T04:29:31.220Z,2.07
2022-12-11T04:32:34.246Z,2.07
2022-12-11T04:35:37.353Z,2.06
2022-12-11T04:38:40.613Z,2.06
2022-12-11T04:41:43.671Z,2.06
2022-12-11T04:44:46.751Z,2.04
2022-12-11T04:47:49.933Z,2.01
2022-12-11T04:50:52.947Z,2.00
2022-12-11T04:53:56.153Z,1.97
2022-12-11T04:56:59.173Z,1.95
2022-12-11T05:00:04.702Z,1.92
2022-12-11T05:03:08.367Z,1.90
2022-12-11T05:06:12.022Z,1.90
2022-12-11T05:09:15.143Z,1.88
2022-12-11T05:12:18.155Z,1.88
2022-12-11T05:15:21.346Z,1.88
2022-12-11T05:18:25.220Z,1.85
2022-12-11T05:21:34.666Z,1.82
2022-12-11T05:24:38.140Z,1.81
2022-12-11T05:27:41.110Z,1.78
2022-12-11T05:30:44.223Z,1.77
2022-12-11T05:33:48.960Z,1.76
2022-12-11T05:36:52.016Z,1.75
2022-12-11T05:39:55.026Z,1.75
2022-12-11T05:42:58.296Z,1.76
2022-12-11T05:46:11.838Z,1.76
2022-12-11T05:49:17.525Z,1.74
2022-12-11T05:52:23.012Z,1.73
2022-12-11T05:55:26.020Z,1.70
2022-12-11T05:58:29.575Z,1.69
2022-12-11T06:01:43.103Z,1.70
2022-12-11T06:04:46.422Z,1.70
2022-12-11T06:07:49.506Z,1.67
2022-12-11T06:10:52.570Z,1.65
2022-12-11T06:13:56.249Z,1.64
2022-12-11T06:16:59.289Z,1.62
2022-12-11T06:20:02.343Z,1.61
2022-12-11T06:23:05.419Z,1.59
2022-12-11T06:26:09.576Z,1.58
2022-12-11T06:29:13.054Z,1.58
2022-12-11T06:32:16.290Z,1.56
2022-12-11T06:35:19.321Z,1.54
2022-12-11T06:38:22.945Z,1.55
2022-12-11T06:41:26.049Z,1.56
2022-12-11T06:44:29.047Z,1.55
2022-12-11T06:47:33.168Z,1.53
2022-12-11T06:50:38.604Z,1.51
2022-12-11T06:53:42.190Z,1.50
2022-12-11T06:56:45.226Z,1.49
2022-12-11T06:59:48.338Z,1.49
2022-12-11T07:02:51.553Z,1.51
2022-12-11T07:05:54.630Z,1.52
2022-12-11T07:08:57.654Z,1.52
2022-12-11T07:12:00.816Z,1.51
2022-12-11T07:15:05.516Z,1.52
2022-12-11T07:18:08.546Z,1.52
2022-12-11T07:21:13.182Z,1.51
2022-12-11T07:24:16.259Z,1.50
2022-12-11T07:27:19.456Z,1.50
2022-12-11T07:30:22.411Z,1.51
2022-12-11T07:33:25.424Z,1.52
2022-12-11T07:36:29.620Z,1.51
2022-12-11T07:39:33.038Z,1.50
2022-12-11T07:42:37.628Z,1.48
2022-12-11T07:45:43.408Z,1.45
2022-12-11T07:48:48.067Z,1.46
2022-12-11T07:51:51.372Z,1.46
2022-12-11T07:54:55.017Z,1.47
2022-12-11T07:58:05.389Z,1.48
2022-12-11T08:01:18.096Z,1.48
2022-12-11T08:04:22.616Z,1.47
2022-12-11T08:07:29.421Z,1.46
2022-12-11T08:10:32.500Z,1.45
2022-12-11T08:13:36.152Z,1.44
2022-12-11T08:16:43.086Z,1.43
2022-12-11T08:19:46.193Z,1.39
2022-12-11T08:22:49.191Z,1.37
2022-12-11T08:25:52.215Z,1.37
2022-12-11T08:28:56.057Z,1.37
2022-12-11T08:31:59.119Z,1.37
2022-12-11T08:35:02.286Z,1.37
2022-12-11T08:38:05.596Z,1.36
2022-12-11T08:41:12.260Z,1.33
2022-12-11T08:44:16.851Z,1.28
2022-12-11T08:47:20.145Z,1.24
2022-12-11T08:50:23.183Z,1.25
2022-12-11T08:53:26.432Z,1.25
2022-12-11T08:56:30.448Z,1.24
2022-12-11T08:59:33.623Z,1.23
2022-12-11T09:02:36.708Z,1.21
2022-12-11T09:05:40.207Z,1.21
2022-12-11T09:08:51.661Z,1.22
2022-12-11T09:12:04.832Z,1.23
2022-12-11T09:15:15.978Z,1.25
2022-12-11T09:18:19.106Z,1.26
2022-12-11T09:21:26.308Z,1.28
2022-12-11T09:24:29.418Z,1.31
2022-12-11T09:27:33.869Z,1.34
2022-12-11T09:30:36.969Z,1.37
2022-12-11T09:33:40.337Z,1.41
2022-12-11T09:36:44.373Z,1.47
2022-12-11T09:39:47.453Z,1.54
2022-12-11T09:43:00.173Z,1.59
2022-12-11T09:46:07.105Z,1.62
2022-12-11T09:49:22.710Z,1.66
2022-12-11T09:56:49.707Z,1.70
2022-12-11T10:00:11.503Z,1.68
2022-12-11T10:03:35.998Z,1.66
2022-12-11T10:06:48.820Z,1.64
2022-12-11T10:09:56.752Z,1.62
2022-12-11T10:13:21.733Z,1.58
2022-12-11T10:16:38.508Z,1.54
2022-12-11T10:19:42.377Z,1.49
2022-12-11T10:22:45.965Z,1.49
2022-12-11T10:26:06.025Z,1.45
2022-12-11T10:29:15.340Z,1.42
2022-12-11T10:32:36.168Z,1.40
2022-12-11T10:35:40.709Z,1.39
2022-12-11T10:38:46.962Z,1.38
2022-12-11T10:41:52.755Z,1.36
2022-12-11T10:44:56.843Z,1.32
2022-12-11T10:48:13.372Z,1.30
2022-12-11T10:51:17.693Z,1.27
2022-12-11T10:55:00.332Z,1.23
2022-12-11T10:58:06.814Z,1.21
2022-12-11T11:01:29.390Z,1.19
2022-12-11T11:04:37.416Z,1.19
2022-12-11T11:07:41.123Z,1.20
2022-12-11T11:10:54.555Z,1.20
2022-12-11T11:14:21.252Z,1.18
2022-12-11T11:17:24.445Z,1.17
2022-12-11T11:21:00.788Z,1.17
2022-12-11T11:24:04.022Z,1.16
2022-12-11T11:27:36.173Z,1.16
2022-12-11T11:30:42.203Z,1.15
2022-12-11T11:34:00.582Z,1.13
2022-12-11T11:37:13.296Z,1.10
2022-12-11T11:40:29.785Z,1.13
2022-12-11T11:43:40.394Z,1.14
2022-12-11T11:46:54.166Z,1.12
2022-12-11T11:50:03.908Z,1.08
2022-12-11T11:53:20.955Z,1.05
2022-12-11T11:56:31.803Z,1.03
2022-12-11T11:59:49.602Z,1.00
2022-12-11T12:03:25.755Z,1.02
2022-12-11T12:06:43.751Z,1.01
2022-12-11T12:10:10.368Z,1.00
2022-12-11T12:14:22.530Z,0.97
2022-12-11T12:17:42.506Z,0.95
2022-12-11T12:21:51.628Z,0.95
2022-12-11T12:25:00.949Z,0.97
2022-12-11T12:28:22.802Z,1.00
2022-12-11T12:31:46.831Z,1.02
2022-12-11T12:35:08.561Z,1.01
2022-12-11T12:38:31.292Z,1.02
2022-12-11T12:42:07.237Z,0.99
2022-12-11T12:45:38.042Z,0.98
2022-12-11T12:48:41.349Z,1.00
2022-12-11T12:51:46.485Z,0.99
2022-12-11T12:55:13.379Z,0.96
2022-12-11T12:58:25.318Z,0.96
2022-12-11T13:01:30.626Z,0.96
2022-12-11T13:04:56.095Z,0.96
2022-12-11T13:08:02.933Z,0.96
2022-12-11T13:11:10.416Z,0.93
2022-12-11T13:14:16.465Z,0.90
2022-12-11T13:17:22.246Z,0.88
2022-12-11T13:20:28.783Z,0.89
2022-12-11T13:23:35.176Z,0.88
2022-12-11T13:26:38.394Z,0.86
2022-12-11T13:29:42.637Z,0.84
2022-12-11T13:33:07.104Z,0.84
2022-12-11T13:36:16.771Z,0.84
2022-12-11T13:39:26.195Z,0.81
2022-12-11T13:42:37.445Z,0.78
2022-12-11T13:45:49.245Z,0.76
2022-12-11T13:48:57.335Z,0.74
2022-12-11T13:52:01.522Z,0.72
2022-12-11T13:55:27.199Z,0.68
2022-12-11T13:58:34.640Z,0.64
2022-12-11T14:01:37.770Z,0.61
2022-12-11T14:04:41.497Z,0.59
2022-12-11T14:07:49.865Z,0.58
2022-12-11T14:10:54.070Z,0.58
2022-12-11T14:14:00.996Z,0.57
2022-12-11T14:17:04.400Z,0.57
2022-12-11T14:20:19.729Z,0.57
2022-12-11T14:23:26.375Z,0.56
2022-12-11T14:26:33.143Z,0.54
2022-12-11T14:29:36.313Z,0.51
2022-12-11T14:32:44.880Z,0.45
2022-12-11T14:35:49.898Z,0.40
2022-12-11T14:38:57.993Z,0.36
2022-12-11T14:42:08.500Z,0.34
2022-12-11T14:45:35.024Z,0.30
2022-12-11T14:48:46.887Z,0.26
2022-12-11T14:51:51.741Z,0.23
2022-12-11T14:55:00.784Z,0.22
2022-12-11T14:58:12.128Z,0.21
2022-12-11T15:01:33.058Z,0.19
2022-12-11T15:04:42.171Z,0.16
2022-12-11T15:08:10.582Z,0.15
2022-12-11T15:11:16.904Z,0.12
2022-12-11T15:14:29.658Z,0.12
2022-12-11T15:17:37.264Z,0.10
2022-12-11T15:20:40.848Z,0.08
2022-12-11T15:23:52.517Z,0.04
2022-12-11T15:26:59.376Z,0.01
2022-12-11T15:30:15.553Z,0.01
2022-12-11T15:33:21.964Z,-0.01
2022-12-11T15:36:25.040Z,-0.05
2022-12-11T15:39:28.152Z,-0.08
2022-12-11T15:42:34.472Z,-0.08
2022-12-11T15:45:37.686Z,-0.09
2022-12-11T15:48:40.926Z,-0.08
2022-12-11T15:51:43.993Z,-0.07
2022-12-11T15:54:51.618Z,-0.05
2022-12-11T15:58:01.322Z,-0.04
2022-12-11T16:01:04.752Z,-0.03
2022-12-11T16:04:08.475Z,-0.00
2022-12-11T16:07:21.256Z,0.01
2022-12-11T16:10:24.390Z,0.03
2022-12-11T16:13:27.546Z,0.05
2022-12-11T16:16:31.494Z,0.05
2022-12-11T16:19:38.890Z,0.05
2022-12-11T16:22:51.024Z,0.05
2022-12-11T16:25:54.065Z,0.05
2022-12-11T16:29:15.077Z,0.05
2022-12-11T16:32:18.758Z,0.05
2022-12-11T16:35:22.724Z,0.05
2022-12-11T16:38:28.854Z,0.06
2022-12-11T16:41:32.015Z,0.05
2022-12-11T16:44:39.558Z,0.06
2022-12-11T16:47:46.529Z,0.06
2022-12-11T16:50:53.551Z,0.05
2022-12-11T16:53:59.587Z,0.05
2022-12-11T16:57:04.376Z,0.03
2022-12-11T17:00:44.851Z,0.03
2022-12-11T17:04:11.427Z,0.03
2022-12-11T17:07:16.021Z,0.04
2022-12-11T17:10:31.372Z,0.03
2022-12-11T17:15:46.445Z,-0.02
2022-12-11T17:18:51.717Z,-0.01
2022-12-11T17:22:03.395Z,-0.01
2022-12-11T17:25:31.888Z,-0.04
2022-12-11T17:28:41.861Z,-0.07
2022-12-11T17:31:53.138Z,-0.10
2022-12-11T17:34:56.651Z,-0.14
2022-12-11T17:38:06.440Z,-0.17
2022-12-11T17:41:16.946Z,-0.19
2022-12-11T17:47:54.901Z,-0.24
2022-12-11T17:50:58.547Z,-0.26
2022-12-11T17:54:01.837Z,-0.28
2022-12-11T17:57:06.910Z,-0.29
2022-12-11T18:00:10.562Z,-0.29
2022-12-11T18:03:15.821Z,-0.29
2022-12-11T18:06:18.963Z,-0.29
2022-12-11T18:09:33.906Z,-0.29
2022-12-11T18:12:37.890Z,-0.30
2022-12-11T18:16:06.718Z,-0.29
2022-12-11T18:19:09.915Z,-0.28
2022-12-11T18:22:13.010Z,-0.29
2022-12-11T18:25:17.335Z,-0.29
2022-12-11T18:28:21.331Z,-0.29
2022-12-11T18:31:25.054Z,-0.29
2022-12-11T18:34:28.266Z,-0.28
2022-12-11T18:37:31.818Z,-0.27
2022-12-11T18:40:38.428Z,-0.25
2022-12-11T18:43:42.489Z,-0.24
2022-12-11T18:46:45.594Z,-0.23
2022-12-11T18:49:48.720Z,-0.23
2022-12-11T18:52:55.838Z,-0.25
2022-12-11T18:56:00.687Z,-0.27
2022-12-11T18:59:10.547Z,-0.28
2022-12-11T19:02:13.764Z,-0.27
2022-12-11T19:05:16.919Z,-0.27
2022-12-11T19:08:20.068Z,-0.28
2022-12-11T19:11:26.505Z,-0.29
2022-12-11T19:14:30.119Z,-0.28
2022-12-11T19:17:35.952Z,-0.29
2022-12-11T19:20:49.187Z,-0.29
2022-12-11T19:23:56.711Z,-0.28
2022-12-11T19:26:59.844Z,-0.27
2022-12-11T19:30:04.792Z,-0.26
2022-12-11T19:33:08.426Z,-0.25
2022-12-11T19:36:13.564Z,-0.26
2022-12-11T19:39:20.295Z,-0.25
2022-12-11T19:42:23.458Z,-0.24
2022-12-11T19:45:36.315Z,-0.24
2022-12-11T19:48:42.443Z,-0.25
2022-12-11T19:51:45.542Z,-0.27
2022-12-11T19:54:48.950Z,-0.28
2022-12-11T19:57:52.364Z,-0.28
2022-12-11T20:00:55.707Z,-0.29
2022-12-11T20:04:00.962Z,-0.30
2022-12-11T20:07:04.469Z,-0.31
2022-12-11T20:10:07.957Z,-0.32
2022-12-11T20:13:10.973Z,-0.33
2022-12-11T20:16:15.557Z,-0.34
2022-12-11T20:19:22.086Z,-0.33
2022-12-11T20:22:25.091Z,-0.33
2022-12-11T20:25:28.784Z,-0.33
2022-12-11T20:28:31.832Z,-0.33
2022-12-11T20:31:36.368Z,-0.32
2022-12-11T20:34:39.665Z,-0.32
2022-12-11T20:37:42.752Z,-0.33
2022-12-11T20:40:46.324Z,-0.33
2022-12-11T20:43:50.322Z,-0.33
2022-12-11T20:46:53.975Z,-0.34
2022-12-11T20:49:57.078Z,-0.37
2022-12-11T20:53:00.277Z,-0.37
2022-12-11T20:56:16.852Z,-0.38
2022-12-11T20:59:19.882Z,-0.39
2022-12-11T21:02:23.236Z,-0.39
2022-12-11T21:05:26.403Z,-0.39
2022-12-11T21:08:29.481Z,-0.39
2022-12-11T21:11:32.786Z,-0.37
2022-12-11T21:14:36.120Z,-0.36
2022-12-11T21:17:40.814Z,-0.35
2022-12-11T21:20:43.835Z,-0.33
2022-12-11T21:23:46.887Z,-0.32
2022-12-11T21:26:50.249Z,-0.31
2022-12-11T21:29:53.258Z,-0.30
2022-12-11T21:32:56.340Z,-0.30
2022-12-11T21:36:00.716Z,-0.29
2022-12-11T21:39:04.948Z,-0.28
2022-12-11T21:42:08.147Z,-0.27
2022-12-11T21:45:59.350Z,-0.26
2022-12-11T21:48:34.208Z,-0.25
2022-12-11T21:51:43.970Z,-0.25
2022-12-11T21:54:49.769Z,-0.24
2022-12-11T21:57:54.391Z,-0.23
2022-12-11T22:00:57.519Z,-0.21
2022-12-11T22:04:01.159Z,-0.20
2022-12-11T22:07:04.507Z,-0.19
2022-12-11T22:10:08.021Z,-0.20
2022-12-11T22:13:11.079Z,-0.20
2022-12-11T22:16:14.331Z,-0.21
2022-12-11T22:19:17.431Z,-0.23
2022-12-11T22:22:20.514Z,-0.25
2022-12-11T22:25:23.633Z,-0.26
2022-12-11T22:28:26.618Z,-0.28
2022-12-11T22:31:29.751Z,-0.29
2022-12-11T22:34:32.888Z,-0.31
2022-12-11T22:37:36.226Z,-0.31
2022-12-11T22:40:41.601Z,-0.32
2022-12-11T22:43:44.619Z,-0.33
2022-12-11T22:46:50.244Z,-0.32
2022-12-11T22:49:53.756Z,-0.32
2022-12-11T22:52:56.757Z,-0.32
2022-12-11T22:55:59.747Z,-0.32
2022-12-11T22:59:02.794Z,-0.33
2022-12-11T23:02:06.011Z,-0.32
2022-12-11T23:05:12.025Z,-0.33
2022-12-11T23:08:15.330Z,-0.33
2022-12-11T23:11:22.400Z,-0.33
2022-12-11T23:14:25.402Z,-0.32
2022-12-11T23:17:28.399Z,-0.32
2022-12-11T23:20:31.440Z,-0.31
2022-12-11T23:23:34.640Z,-0.30
2022-12-11T23:26:38.477Z,-0.29
2022-12-11T23:29:41.667Z,-0.28
2022-12-11T23:32:44.679Z,-0.26
2022-12-11T23:35:47.666Z,-0.26
2022-12-11T23:38:54.479Z,-0.26
2022-12-11T23:41:57.827Z,-0.26
2022-12-11T23:45:00.843Z,-0.27
2022-12-11T23:48:03.875Z,-0.26
2022-12-11T23:51:07.790Z,-0.25
2022-12-11T23:54:10.798Z,-0.24
2022-12-11T23:57:13.831Z,-0.23
